Terminal Aerodrome Forecast
Issued by NWS

Home | Current Version | Previous Version | Text Only | Print | Product List | Glossary On
Versions: 1 2 3 4 5 6 7 8 9 10 11 12 13 14 15
000
FTUS43 KJKL 300500
TAFSJS
TAF
KSJS 300520Z 3006/0106 00000KT P6SM SKC
     FM300700 00000KT 2SM BR SCT002
     FM300800 00000KT 1/2SM FG VV002
     FM301400 00000KT 4SM BR FEW002
     FM301500 VRB03KT P6SM SKC=

USA.gov is the U.S. government's official web portal to all federal, state and local government web resources and services.